Time,TemperatureF,DewpointF,PressureIn,WindDirection,WindDirectionDegrees,WindSpeedMPH,WindSpeedGustMPH,Humidity,HourlyPrecipIn,Conditions,Clouds,dailyrainin,SolarRadiationWatts/m^2,SoftwareType,DateUTC
2013-03-08 00:00:00,34.0,34.0,29.82,NNE,20,1.0,-999.0,97,0.00,,,-99.99,-1.600000,,2013-03-08 08:00:00,
2013-03-08 00:22:00,34.0,34.0,29.82,NNE,20,1.0,-999.0,97,0.00,,,-99.99,-1.600000,,2013-03-08 08:22:00,
2013-03-08 00:32:00,34.0,34.0,29.82,NNE,20,1.0,-999.0,97,0.00,,,-99.99,-1.600000,,2013-03-08 08:32:00,
2013-03-08 00:42:00,34.0,34.0,29.82,NNE,20,1.0,-999.0,97,0.00,,,-99.99,-1.600000,,2013-03-08 08:42:00,
2013-03-08 00:52:00,34.0,34.0,29.82,NNE,20,1.0,-999.0,97,0.00,,,-99.99,-1.600000,,2013-03-08 08:52:00,
2013-03-08 02:00:00,35.0,34.0,29.79,NW,315,2.0,-999.0,97,0.00,,,-99.99,-2.200000,,2013-03-08 10:00:00,
2013-03-08 02:21:00,35.0,34.0,29.79,NW,315,2.0,-999.0,97,0.00,,,-99.99,-2.200000,,2013-03-08 10:21:00,
2013-03-08 02:32:00,35.0,34.0,29.79,NW,315,2.0,-999.0,97,0.00,,,-99.99,-2.200000,,2013-03-08 10:32:00,
2013-03-08 02:42:00,35.0,34.0,29.79,NW,315,2.0,-999.0,97,0.00,,,-99.99,-2.200000,,2013-03-08 10:42:00,
2013-03-08 02:52:00,35.0,34.0,29.79,NW,315,2.0,-999.0,97,0.00,,,-99.99,-2.200000,,2013-03-08 10:52:00,
2013-03-08 03:00:00,33.0,33.0,29.78,WNW,283,1.0,-999.0,98,0.00,,,-99.99,-2.400000,,2013-03-08 11:00:00,
2013-03-08 03:22:00,33.0,33.0,29.78,WNW,283,1.0,-999.0,98,0.00,,,-99.99,-2.400000,,2013-03-08 11:22:00,
2013-03-08 03:32:00,33.0,33.0,29.78,WNW,283,1.0,-999.0,98,0.00,,,-99.99,-2.400000,,2013-03-08 11:32:00,
2013-03-08 03:42:00,33.0,33.0,29.78,WNW,283,1.0,-999.0,98,0.00,,,-99.99,-2.400000,,2013-03-08 11:42:00,
2013-03-08 03:52:00,33.0,33.0,29.78,WNW,283,1.0,-999.0,98,0.00,,,-99.99,-2.400000,,2013-03-08 11:52:00,
2013-03-08 04:00:00,34.0,34.0,29.76,NW,326,2.0,-999.0,98,0.00,,,-99.99,-1.700000,,2013-03-08 12:00:00,
2013-03-08 04:22:00,34.0,34.0,29.76,NW,326,2.0,-999.0,98,0.00,,,-99.99,-1.700000,,2013-03-08 12:22:00,
2013-03-08 04:32:00,34.0,34.0,29.76,NW,326,2.0,-999.0,98,0.00,,,-99.99,-1.700000,,2013-03-08 12:32:00,
2013-03-08 04:43:00,34.0,34.0,29.76,NW,326,2.0,-999.0,98,0.00,,,-99.99,-1.700000,,2013-03-08 12:43:00,
2013-03-08 04:52:00,34.0,34.0,29.76,NW,326,2.0,-999.0,98,0.00,,,-99.99,-1.700000,,2013-03-08 12:52:00,
2013-03-08 05:00:00,34.0,33.0,29.76,North,352,3.0,-999.0,97,0.00,,,-99.99,-1.700000,,2013-03-08 13:00:00,
2013-03-08 05:22:00,34.0,33.0,29.76,North,352,3.0,-999.0,97,0.00,,,-99.99,-1.700000,,2013-03-08 13:22:00,
2013-03-08 05:32:00,34.0,33.0,29.76,North,352,3.0,-999.0,97,0.00,,,-99.99,-1.700000,,2013-03-08 13:32:00,
2013-03-08 05:42:00,34.0,33.0,29.76,North,352,3.0,-999.0,97,0.00,,,-99.99,-1.700000,,2013-03-08 13:42:00,
2013-03-08 05:52:00,34.0,33.0,29.76,North,352,3.0,-999.0,97,0.00,,,-99.99,-1.700000,,2013-03-08 13:52:00,
2013-03-08 06:00:00,33.0,33.0,29.76,North,4,5.0,-999.0,97,0.00,,,-99.99,-1.800000,,2013-03-08 14:00:00,
2013-03-08 06:22:00,33.0,33.0,29.76,North,4,5.0,-999.0,97,0.00,,,-99.99,-1.800000,,2013-03-08 14:22:00,
2013-03-08 06:32:00,33.0,33.0,29.76,North,4,5.0,-999.0,97,0.00,,,-99.99,-1.800000,,2013-03-08 14:32:00,
2013-03-08 06:42:00,33.0,33.0,29.76,North,4,5.0,-999.0,97,0.00,,,-99.99,-1.800000,,2013-03-08 14:42:00,
2013-03-08 06:52:00,33.0,33.0,29.76,North,4,5.0,-999.0,97,0.00,,,-99.99,-1.800000,,2013-03-08 14:52:00,
2013-03-08 07:00:00,34.0,33.0,29.77,North,8,2.0,-999.0,96,0.00,,,-99.99,4.700000,,2013-03-08 15:00:00,
2013-03-08 07:22:00,34.0,33.0,29.77,North,8,2.0,-999.0,96,0.00,,,-99.99,4.700000,,2013-03-08 15:22:00,
2013-03-08 07:32:00,34.0,33.0,29.77,North,8,2.0,-999.0,96,0.00,,,-99.99,4.700000,,2013-03-08 15:32:00,
2013-03-08 07:43:00,34.0,33.0,29.77,North,8,2.0,-999.0,96,0.00,,,-99.99,4.700000,,2013-03-08 15:43:00,
2013-03-08 07:53:00,34.0,33.0,29.77,North,8,2.0,-999.0,96,0.00,,,-99.99,4.700000,,2013-03-08 15:53:00,
2013-03-08 08:22:00,34.0,33.0,29.78,North,358,4.0,-999.0,97,0.00,,,-99.99,30.100000,,2013-03-08 16:22:00,
2013-03-08 08:32:00,34.0,33.0,29.78,North,358,4.0,-999.0,97,0.00,,,-99.99,30.100000,,2013-03-08 16:32:00,
2013-03-08 08:42:00,34.0,33.0,29.78,North,358,4.0,-999.0,97,0.00,,,-99.99,30.100000,,2013-03-08 16:42:00,
2013-03-08 08:52:00,34.0,33.0,29.78,North,358,4.0,-999.0,97,0.00,,,-99.99,30.100000,,2013-03-08 16:52:00,
2013-03-08 09:00:00,42.0,36.0,29.78,North,9,6.0,-999.0,77,0.00,,,-99.99,251.899994,,2013-03-08 17:00:00,
2013-03-08 09:22:00,42.0,36.0,29.78,North,9,6.0,-999.0,77,0.00,,,-99.99,251.899994,,2013-03-08 17:22:00,
2013-03-08 09:32:00,42.0,36.0,29.78,North,9,6.0,-999.0,77,0.00,,,-99.99,251.899994,,2013-03-08 17:32:00,
2013-03-08 09:42:00,42.0,36.0,29.78,North,9,6.0,-999.0,77,0.00,,,-99.99,251.899994,,2013-03-08 17:42:00,
2013-03-08 09:52:00,42.0,36.0,29.78,North,9,6.0,-999.0,77,0.00,,,-99.99,251.899994,,2013-03-08 17:52:00,
2013-03-08 10:00:00,51.0,35.0,29.79,North,359,5.0,-999.0,53,0.00,,,-99.99,524.000000,,2013-03-08 18:00:00,
2013-03-08 10:22:00,51.0,35.0,29.79,North,359,5.0,-999.0,53,0.00,,,-99.99,524.000000,,2013-03-08 18:22:00,
2013-03-08 10:32:00,51.0,35.0,29.79,North,359,5.0,-999.0,53,0.00,,,-99.99,524.000000,,2013-03-08 18:32:00,
2013-03-08 10:42:00,51.0,35.0,29.79,North,359,5.0,-999.0,53,0.00,,,-99.99,524.000000,,2013-03-08 18:42:00,
2013-03-08 10:52:00,51.0,35.0,29.79,North,359,5.0,-999.0,53,0.00,,,-99.99,524.000000,,2013-03-08 18:52:00,
2013-03-08 11:00:00,55.0,31.0,29.79,NNW,331,1.0,-999.0,40,0.00,,,-99.99,681.200012,,2013-03-08 19:00:00,
2013-03-08 11:22:00,55.0,31.0,29.79,NNW,331,1.0,-999.0,40,0.00,,,-99.99,681.200012,,2013-03-08 19:22:00,
2013-03-08 11:32:00,55.0,31.0,29.79,NNW,331,1.0,-999.0,40,0.00,,,-99.99,681.200012,,2013-03-08 19:32:00,
2013-03-08 11:42:00,55.0,31.0,29.79,NNW,331,1.0,-999.0,40,0.00,,,-99.99,681.200012,,2013-03-08 19:42:00,
2013-03-08 11:52:00,55.0,31.0,29.79,NNW,331,1.0,-999.0,40,0.00,,,-99.99,681.200012,,2013-03-08 19:52:00,
2013-03-08 12:00:00,58.0,36.0,29.78,NE,48,3.0,-999.0,45,0.00,,,-99.99,755.900024,,2013-03-08 20:00:00,
2013-03-08 12:22:00,58.0,36.0,29.78,NE,48,3.0,-999.0,45,0.00,,,-99.99,755.900024,,2013-03-08 20:22:00,
2013-03-08 12:32:00,58.0,36.0,29.78,NE,48,3.0,-999.0,45,0.00,,,-99.99,755.900024,,2013-03-08 20:32:00,
2013-03-08 12:42:00,58.0,36.0,29.78,NE,48,3.0,-999.0,45,0.00,,,-99.99,755.900024,,2013-03-08 20:42:00,
2013-03-08 12:53:00,58.0,36.0,29.78,NE,48,3.0,-999.0,45,0.00,,,-99.99,755.900024,,2013-03-08 20:53:00,
2013-03-08 13:00:00,57.0,38.0,29.78,WNW,297,1.0,-999.0,47,0.00,,,-99.99,781.400024,,2013-03-08 21:00:00,
2013-03-08 13:22:00,57.0,38.0,29.78,WNW,297,1.0,-999.0,47,0.00,,,-99.99,781.400024,,2013-03-08 21:22:00,
2013-03-08 13:32:00,57.0,38.0,29.78,WNW,297,1.0,-999.0,47,0.00,,,-99.99,781.400024,,2013-03-08 21:32:00,
2013-03-08 13:42:00,57.0,38.0,29.78,WNW,297,1.0,-999.0,47,0.00,,,-99.99,781.400024,,2013-03-08 21:42:00,
2013-03-08 13:52:00,57.0,38.0,29.78,WNW,297,1.0,-999.0,47,0.00,,,-99.99,781.400024,,2013-03-08 21:52:00,
2013-03-08 14:00:00,56.0,36.0,29.79,SSW,207,1.0,-999.0,46,0.00,,,-99.99,712.000000,,2013-03-08 22:00:00,
2013-03-08 14:22:00,56.0,36.0,29.79,SSW,207,1.0,-999.0,46,0.00,,,-99.99,712.000000,,2013-03-08 22:22:00,
2013-03-08 14:32:00,56.0,36.0,29.79,SSW,207,1.0,-999.0,46,0.00,,,-99.99,712.000000,,2013-03-08 22:32:00,
2013-03-08 14:42:00,56.0,36.0,29.79,SSW,207,1.0,-999.0,46,0.00,,,-99.99,712.000000,,2013-03-08 22:42:00,
2013-03-08 14:52:00,56.0,36.0,29.79,SSW,207,1.0,-999.0,46,0.00,,,-99.99,712.000000,,2013-03-08 22:52:00,
2013-03-08 16:00:00,54.0,35.0,29.81,SW,219,2.0,-999.0,49,0.00,,,-99.99,140.300003,,2013-03-09 00:00:00,
2013-03-08 16:22:00,54.0,35.0,29.81,SW,219,2.0,-999.0,49,0.00,,,-99.99,140.300003,,2013-03-09 00:22:00,
2013-03-08 16:32:00,54.0,35.0,29.81,SW,219,2.0,-999.0,49,0.00,,,-99.99,140.300003,,2013-03-09 00:32:00,
2013-03-08 16:42:00,54.0,35.0,29.81,SW,219,2.0,-999.0,49,0.00,,,-99.99,140.300003,,2013-03-09 00:42:00,
2013-03-08 16:52:00,54.0,35.0,29.81,SW,219,2.0,-999.0,49,0.00,,,-99.99,140.300003,,2013-03-09 00:52:00,
2013-03-08 17:00:00,52.0,39.0,29.82,SW,227,1.0,-999.0,59,0.00,,,-99.99,76.500000,,2013-03-09 01:00:00,
2013-03-08 17:22:00,52.0,39.0,29.82,SW,227,1.0,-999.0,59,0.00,,,-99.99,76.500000,,2013-03-09 01:22:00,
2013-03-08 17:32:00,52.0,39.0,29.82,SW,227,1.0,-999.0,59,0.00,,,-99.99,76.500000,,2013-03-09 01:32:00,
2013-03-08 17:42:00,52.0,39.0,29.82,SW,227,1.0,-999.0,59,0.00,,,-99.99,76.500000,,2013-03-09 01:42:00,
2013-03-08 17:52:00,52.0,39.0,29.82,SW,227,1.0,-999.0,59,0.00,,,-99.99,76.500000,,2013-03-09 01:52:00,
2013-03-08 20:00:00,47.0,39.0,29.93,NNE,13,2.0,-999.0,72,0.00,,,-99.99,-0.400000,,2013-03-09 04:00:00,
2013-03-08 20:22:00,47.0,39.0,29.93,NNE,13,2.0,-999.0,72,0.00,,,-99.99,-0.400000,,2013-03-09 04:22:00,
2013-03-08 20:32:00,47.0,39.0,29.93,NNE,13,2.0,-999.0,72,0.00,,,-99.99,-0.400000,,2013-03-09 04:32:00,
2013-03-08 20:42:00,47.0,39.0,29.93,NNE,13,2.0,-999.0,72,0.00,,,-99.99,-0.400000,,2013-03-09 04:42:00,
2013-03-08 20:52:00,47.0,39.0,29.93,NNE,13,2.0,-999.0,72,0.00,,,-99.99,-0.400000,,2013-03-09 04:52:00,
2013-03-08 21:00:00,43.0,39.0,29.94,NE,51,7.0,-999.0,87,0.03,,,-99.99,-0.600000,,2013-03-09 05:00:00,
2013-03-08 21:22:00,43.0,39.0,29.94,NE,51,7.0,-999.0,87,0.03,,,-99.99,-0.600000,,2013-03-09 05:22:00,
2013-03-08 21:32:00,43.0,39.0,29.94,NE,51,7.0,-999.0,87,0.03,,,-99.99,-0.600000,,2013-03-09 05:32:00,
2013-03-08 21:43:00,43.0,39.0,29.94,NE,51,7.0,-999.0,87,0.03,,,-99.99,-0.600000,,2013-03-09 05:43:00,
2013-03-08 21:53:00,43.0,39.0,29.94,NE,51,7.0,-999.0,87,0.03,,,-99.99,-0.600000,,2013-03-09 05:53:00,
2013-03-08 22:00:00,42.0,40.0,29.96,SSE,152,0.0,-999.0,93,0.00,,,-99.99,-0.900000,,2013-03-09 06:00:00,
2013-03-08 22:22:00,42.0,40.0,29.96,SSE,152,0.0,-999.0,93,0.00,,,-99.99,-0.900000,,2013-03-09 06:22:00,
2013-03-08 22:32:00,42.0,40.0,29.96,SSE,152,0.0,-999.0,93,0.00,,,-99.99,-0.900000,,2013-03-09 06:32:00,
2013-03-08 22:42:00,42.0,40.0,29.96,SSE,152,0.0,-999.0,93,0.00,,,-99.99,-0.900000,,2013-03-09 06:42:00,
2013-03-08 22:52:00,42.0,40.0,29.96,SSE,152,0.0,-999.0,93,0.00,,,-99.99,-0.900000,,2013-03-09 06:52:00,
2013-03-08 23:00:00,41.0,39.0,29.97,ESE,120,1.0,-999.0,93,0.00,,,-99.99,-1.200000,,2013-03-09 07:00:00,
2013-03-08 23:21:00,41.0,39.0,29.97,ESE,120,1.0,-999.0,93,0.00,,,-99.99,-1.200000,,2013-03-09 07:21:00,
2013-03-08 23:32:00,41.0,39.0,29.97,ESE,120,1.0,-999.0,93,0.00,,,-99.99,-1.200000,,2013-03-09 07:32:00,
2013-03-08 23:42:00,41.0,39.0,29.97,ESE,120,1.0,-999.0,93,0.00,,,-99.99,-1.200000,,2013-03-09 07:42:00,
2013-03-08 23:52:00,41.0,39.0,29.97,ESE,120,1.0,-999.0,93,0.00,,,-99.99,-1.200000,,2013-03-09 07:52:00,